sensor_id;sensor_type;location;lat;lon;timestamp;P1;durP1;ratioP1;P2;durP2;ratioP2
80983;SDS011;70442;53.094;8.792;2023-07-31T00:01:44;0.53;;;0.33;;
80983;SDS011;70442;53.094;8.792;2023-07-31T00:04:09;0.50;;;0.33;;
80983;SDS011;70442;53.094;8.792;2023-07-31T00:06:34;1.47;;;0.70;;
80983;SDS011;70442;53.094;8.792;2023-07-31T00:09:00;1.47;;;0.67;;
80983;SDS011;70442;53.094;8.792;2023-07-31T00:11:25;1.40;;;0.73;;
80983;SDS011;70442;53.094;8.792;2023-07-31T00:13:52;1.90;;;0.90;;
80983;SDS011;70442;53.094;8.792;2023-07-31T00:16:18;0.73;;;0.70;;
80983;SDS011;70442;53.094;8.792;2023-07-31T00:18:43;1.75;;;0.40;;
80983;SDS011;70442;53.094;8.792;2023-07-31T00:21:09;1.93;;;0.63;;
80983;SDS011;70442;53.094;8.792;2023-07-31T00:23:34;1.20;;;0.80;;
80983;SDS011;70442;53.094;8.792;2023-07-31T00:25:59;1.97;;;0.73;;
80983;SDS011;70442;53.094;8.792;2023-07-31T00:28:25;0.95;;;0.47;;
80983;SDS011;70442;53.094;8.792;2023-07-31T00:30:50;0.50;;;0.40;;
80983;SDS011;70442;53.094;8.792;2023-07-31T00:33:15;1.33;;;0.67;;
80983;SDS011;70442;53.094;8.792;2023-07-31T00:35:41;1.87;;;0.60;;
80983;SDS011;70442;53.094;8.792;2023-07-31T00:38:06;1.17;;;0.50;;
80983;SDS011;70442;53.094;8.792;2023-07-31T00:40:35;0.80;;;0.57;;
80983;SDS011;70442;53.094;8.792;2023-07-31T00:43:01;1.63;;;0.75;;
80983;SDS011;70442;53.094;8.792;2023-07-31T00:45:28;0.85;;;0.45;;
80983;SDS011;70442;53.094;8.792;2023-07-31T00:47:53;1.20;;;0.60;;
80983;SDS011;70442;53.094;8.792;2023-07-31T00:50:19;2.47;;;0.63;;
80983;SDS011;70442;53.094;8.792;2023-07-31T00:52:44;1.05;;;0.50;;
80983;SDS011;70442;53.094;8.792;2023-07-31T00:55:09;0.73;;;0.50;;
80983;SDS011;70442;53.094;8.792;2023-07-31T00:57:35;0.93;;;0.37;;
80983;SDS011;70442;53.094;8.792;2023-07-31T01:00:02;0.68;;;0.52;;
80983;SDS011;70442;53.094;8.792;2023-07-31T01:02:28;1.50;;;0.50;;
80983;SDS011;70442;53.094;8.792;2023-07-31T01:04:53;1.50;;;0.60;;
80983;SDS011;70442;53.094;8.792;2023-07-31T01:07:26;0.77;;;0.32;;
80983;SDS011;70442;53.094;8.792;2023-07-31T01:10:11;0.93;;;0.57;;
80983;SDS011;70442;53.094;8.792;2023-07-31T01:12:58;0.90;;;0.45;;
80983;SDS011;70442;53.094;8.792;2023-07-31T01:15:24;1.55;;;0.70;;
80983;SDS011;70442;53.094;8.792;2023-07-31T01:17:49;1.10;;;0.63;;
80983;SDS011;70442;53.094;8.792;2023-07-31T01:20:17;0.80;;;0.40;;
80983;SDS011;70442;53.094;8.792;2023-07-31T01:22:54;1.38;;;0.73;;
80983;SDS011;70442;53.094;8.792;2023-07-31T01:28:13;0.93;;;0.57;;
80983;SDS011;70442;53.094;8.792;2023-07-31T01:30:43;0.63;;;0.35;;
80983;SDS011;70442;53.094;8.792;2023-07-31T01:33:10;0.70;;;0.60;;
80983;SDS011;70442;53.094;8.792;2023-07-31T01:35:36;0.85;;;0.60;;
80983;SDS011;70442;53.094;8.792;2023-07-31T01:38:02;0.80;;;0.47;;
80983;SDS011;70442;53.094;8.792;2023-07-31T01:40:27;1.00;;;0.60;;
80983;SDS011;70442;53.094;8.792;2023-07-31T01:42:52;1.27;;;0.63;;
80983;SDS011;70442;53.094;8.792;2023-07-31T01:45:18;0.82;;;0.40;;
80983;SDS011;70442;53.094;8.792;2023-07-31T01:47:43;0.85;;;0.55;;
80983;SDS011;70442;53.094;8.792;2023-07-31T01:50:09;0.57;;;0.43;;
80983;SDS011;70442;53.094;8.792;2023-07-31T01:52:34;0.60;;;0.40;;
80983;SDS011;70442;53.094;8.792;2023-07-31T01:54:59;0.70;;;0.40;;
80983;SDS011;70442;53.094;8.792;2023-07-31T01:57:25;1.65;;;0.60;;
80983;SDS011;70442;53.094;8.792;2023-07-31T01:59:50;1.17;;;0.63;;
80983;SDS011;70442;53.094;8.792;2023-07-31T02:02:18;0.95;;;0.38;;
80983;SDS011;70442;53.094;8.792;2023-07-31T02:04:43;1.20;;;0.63;;
80983;SDS011;70442;53.094;8.792;2023-07-31T02:07:08;1.50;;;0.57;;
80983;SDS011;70442;53.094;8.792;2023-07-31T02:09:34;0.70;;;0.50;;
80983;SDS011;70442;53.094;8.792;2023-07-31T02:11:59;0.93;;;0.50;;
80983;SDS011;70442;53.094;8.792;2023-07-31T02:14:24;0.83;;;0.60;;
80983;SDS011;70442;53.094;8.792;2023-07-31T02:16:50;0.88;;;0.50;;
80983;SDS011;70442;53.094;8.792;2023-07-31T02:19:15;0.40;;;0.30;;
80983;SDS011;70442;53.094;8.792;2023-07-31T02:21:41;1.13;;;0.40;;
80983;SDS011;70442;53.094;8.792;2023-07-31T02:24:06;0.77;;;0.40;;
80983;SDS011;70442;53.094;8.792;2023-07-31T02:26:31;0.67;;;0.47;;
80983;SDS011;70442;53.094;8.792;2023-07-31T02:28:56;0.50;;;0.47;;
80983;SDS011;70442;53.094;8.792;2023-07-31T02:31:22;0.77;;;0.40;;
80983;SDS011;70442;53.094;8.792;2023-07-31T02:33:47;0.90;;;0.57;;
80983;SDS011;70442;53.094;8.792;2023-07-31T02:36:12;0.47;;;0.40;;
80983;SDS011;70442;53.094;8.792;2023-07-31T02:38:39;1.05;;;0.65;;
80983;SDS011;70442;53.094;8.792;2023-07-31T02:41:04;1.07;;;0.60;;
80983;SDS011;70442;53.094;8.792;2023-07-31T02:43:30;0.70;;;0.40;;
80983;SDS011;70442;53.094;8.792;2023-07-31T02:45:55;0.70;;;0.50;;
80983;SDS011;70442;53.094;8.792;2023-07-31T02:48:21;1.35;;;0.70;;
80983;SDS011;70442;53.094;8.792;2023-07-31T02:50:47;1.23;;;0.73;;
80983;SDS011;70442;53.094;8.792;2023-07-31T02:53:12;0.50;;;0.47;;
80983;SDS011;70442;53.094;8.792;2023-07-31T02:55:38;1.10;;;0.53;;
80983;SDS011;70442;53.094;8.792;2023-07-31T02:58:03;0.85;;;0.45;;
80983;SDS011;70442;53.094;8.792;2023-07-31T03:00:29;0.53;;;0.47;;
80983;SDS011;70442;53.094;8.792;2023-07-31T03:02:54;2.15;;;0.50;;
80983;SDS011;70442;53.094;8.792;2023-07-31T03:05:19;1.17;;;0.50;;
80983;SDS011;70442;53.094;8.792;2023-07-31T03:07:45;0.43;;;0.40;;
80983;SDS011;70442;53.094;8.792;2023-07-31T03:10:10;0.73;;;0.40;;
80983;SDS011;70442;53.094;8.792;2023-07-31T03:12:35;0.57;;;0.40;;
80983;SDS011;70442;53.094;8.792;2023-07-31T03:15:01;0.30;;;0.30;;
80983;SDS011;70442;53.094;8.792;2023-07-31T03:17:26;1.00;;;0.60;;
80983;SDS011;70442;53.094;8.792;2023-07-31T03:19:51;0.83;;;0.60;;
80983;SDS011;70442;53.094;8.792;2023-07-31T03:22:17;0.90;;;0.50;;
80983;SDS011;70442;53.094;8.792;2023-07-31T03:24:42;0.80;;;0.50;;
80983;SDS011;70442;53.094;8.792;2023-07-31T03:27:07;0.60;;;0.50;;
80983;SDS011;70442;53.094;8.792;2023-07-31T03:29:33;0.50;;;0.50;;
80983;SDS011;70442;53.094;8.792;2023-07-31T03:31:58;1.43;;;0.83;;
80983;SDS011;70442;53.094;8.792;2023-07-31T03:34:24;1.15;;;0.65;;
80983;SDS011;70442;53.094;8.792;2023-07-31T03:36:49;0.93;;;0.50;;
80983;SDS011;70442;53.094;8.792;2023-07-31T03:39:14;1.33;;;0.52;;
80983;SDS011;70442;53.094;8.792;2023-07-31T03:41:40;0.73;;;0.50;;
80983;SDS011;70442;53.094;8.792;2023-07-31T03:44:05;0.50;;;0.40;;
80983;SDS011;70442;53.094;8.792;2023-07-31T03:46:30;1.63;;;0.55;;
80983;SDS011;70442;53.094;8.792;2023-07-31T03:48:56;1.07;;;0.47;;
80983;SDS011;70442;53.094;8.792;2023-07-31T03:51:21;1.60;;;0.57;;
80983;SDS011;70442;53.094;8.792;2023-07-31T03:53:46;0.70;;;0.40;;
80983;SDS011;70442;53.094;8.792;2023-07-31T03:56:12;0.70;;;0.50;;
80983;SDS011;70442;53.094;8.792;2023-07-31T03:58:38;0.50;;;0.40;;
80983;SDS011;70442;53.094;8.792;2023-07-31T04:01:03;2.72;;;0.85;;
80983;SDS011;70442;53.094;8.792;2023-07-31T04:03:29;0.93;;;0.50;;
80983;SDS011;70442;53.094;8.792;2023-07-31T04:05:55;1.02;;;0.40;;
80983;SDS011;70442;53.094;8.792;2023-07-31T04:08:23;0.60;;;0.47;;
80983;SDS011;70442;53.094;8.792;2023-07-31T04:10:48;0.68;;;0.57;;
80983;SDS011;70442;53.094;8.792;2023-07-31T04:13:14;0.80;;;0.50;;
80983;SDS011;70442;53.094;8.792;2023-07-31T04:15:39;0.80;;;0.50;;
80983;SDS011;70442;53.094;8.792;2023-07-31T04:18:05;1.50;;;0.83;;
80983;SDS011;70442;53.094;8.792;2023-07-31T04:20:30;1.10;;;0.80;;
80983;SDS011;70442;53.094;8.792;2023-07-31T04:22:56;0.70;;;0.50;;
80983;SDS011;70442;53.094;8.792;2023-07-31T04:25:21;0.88;;;0.60;;
80983;SDS011;70442;53.094;8.792;2023-07-31T04:27:46;0.80;;;0.60;;
80983;SDS011;70442;53.094;8.792;2023-07-31T04:30:12;1.27;;;0.65;;
80983;SDS011;70442;53.094;8.792;2023-07-31T04:32:37;0.80;;;0.50;;
80983;SDS011;70442;53.094;8.792;2023-07-31T04:35:03;1.33;;;0.70;;
80983;SDS011;70442;53.094;8.792;2023-07-31T04:37:28;1.17;;;0.70;;
80983;SDS011;70442;53.094;8.792;2023-07-31T04:39:54;2.57;;;1.40;;
80983;SDS011;70442;53.094;8.792;2023-07-31T04:42:19;1.10;;;0.60;;
80983;SDS011;70442;53.094;8.792;2023-07-31T04:44:44;1.40;;;0.90;;
80983;SDS011;70442;53.094;8.792;2023-07-31T04:47:09;1.13;;;0.60;;
80983;SDS011;70442;53.094;8.792;2023-07-31T04:49:35;0.77;;;0.60;;
80983;SDS011;70442;53.094;8.792;2023-07-31T04:52:00;0.80;;;0.60;;
80983;SDS011;70442;53.094;8.792;2023-07-31T04:54:25;0.57;;;0.40;;
80983;SDS011;70442;53.094;8.792;2023-07-31T04:56:51;0.63;;;0.50;;
80983;SDS011;70442;53.094;8.792;2023-07-31T04:59:17;0.80;;;0.65;;
80983;SDS011;70442;53.094;8.792;2023-07-31T05:01:42;0.60;;;0.50;;
80983;SDS011;70442;53.094;8.792;2023-07-31T05:04:10;0.55;;;0.40;;
80983;SDS011;70442;53.094;8.792;2023-07-31T05:06:37;0.55;;;0.40;;
80983;SDS011;70442;53.094;8.792;2023-07-31T05:09:02;0.30;;;0.20;;
80983;SDS011;70442;53.094;8.792;2023-07-31T05:11:27;0.77;;;0.50;;
80983;SDS011;70442;53.094;8.792;2023-07-31T05:13:53;0.37;;;0.30;;
80983;SDS011;70442;53.094;8.792;2023-07-31T05:16:18;1.00;;;0.50;;
80983;SDS011;70442;53.094;8.792;2023-07-31T05:18:43;0.73;;;0.50;;
80983;SDS011;70442;53.094;8.792;2023-07-31T05:21:09;0.27;;;0.27;;
80983;SDS011;70442;53.094;8.792;2023-07-31T05:23:34;0.73;;;0.50;;
80983;SDS011;70442;53.094;8.792;2023-07-31T05:26:05;0.50;;;0.37;;
80983;SDS011;70442;53.094;8.792;2023-07-31T05:28:33;0.60;;;0.43;;
80983;SDS011;70442;53.094;8.792;2023-07-31T05:31:02;1.15;;;0.60;;
80983;SDS011;70442;53.094;8.792;2023-07-31T05:33:29;0.80;;;0.50;;
80983;SDS011;70442;53.094;8.792;2023-07-31T05:35:54;0.30;;;0.30;;
80983;SDS011;70442;53.094;8.792;2023-07-31T05:38:19;0.70;;;0.50;;
80983;SDS011;70442;53.094;8.792;2023-07-31T05:40:45;0.60;;;0.55;;
80983;SDS011;70442;53.094;8.792;2023-07-31T05:43:10;0.40;;;0.20;;
80983;SDS011;70442;53.094;8.792;2023-07-31T05:45:35;0.50;;;0.50;;
80983;SDS011;70442;53.094;8.792;2023-07-31T05:48:01;1.25;;;0.35;;
80983;SDS011;70442;53.094;8.792;2023-07-31T05:50:27;0.47;;;0.30;;
80983;SDS011;70442;53.094;8.792;2023-07-31T05:52:52;0.30;;;0.20;;
80983;SDS011;70442;53.094;8.792;2023-07-31T05:55:18;0.30;;;0.20;;
80983;SDS011;70442;53.094;8.792;2023-07-31T05:57:43;0.45;;;0.30;;
80983;SDS011;70442;53.094;8.792;2023-07-31T06:00:10;0.73;;;0.30;;
80983;SDS011;70442;53.094;8.792;2023-07-31T06:02:36;0.32;;;0.10;;
80983;SDS011;70442;53.094;8.792;2023-07-31T06:05:02;0.37;;;0.20;;
80983;SDS011;70442;53.094;8.792;2023-07-31T06:07:30;0.77;;;0.30;;
80983;SDS011;70442;53.094;8.792;2023-07-31T06:09:56;0.57;;;0.28;;
80983;SDS011;70442;53.094;8.792;2023-07-31T06:12:22;0.50;;;0.40;;
80983;SDS011;70442;53.094;8.792;2023-07-31T06:14:48;0.57;;;0.22;;
80983;SDS011;70442;53.094;8.792;2023-07-31T06:17:13;0.43;;;0.30;;
80983;SDS011;70442;53.094;8.792;2023-07-31T06:19:38;0.50;;;0.30;;
80983;SDS011;70442;53.094;8.792;2023-07-31T06:22:04;0.80;;;0.40;;
80983;SDS011;70442;53.094;8.792;2023-07-31T06:24:29;0.25;;;0.20;;
80983;SDS011;70442;53.094;8.792;2023-07-31T06:26:54;0.40;;;0.20;;
80983;SDS011;70442;53.094;8.792;2023-07-31T06:29:20;0.75;;;0.30;;
80983;SDS011;70442;53.094;8.792;2023-07-31T06:31:45;0.13;;;0.10;;
80983;SDS011;70442;53.094;8.792;2023-07-31T06:34:11;0.30;;;0.10;;
80983;SDS011;70442;53.094;8.792;2023-07-31T06:36:36;0.23;;;0.23;;
80983;SDS011;70442;53.094;8.792;2023-07-31T06:39:01;0.70;;;0.37;;
80983;SDS011;70442;53.094;8.792;2023-07-31T06:41:27;0.40;;;0.20;;
80983;SDS011;70442;53.094;8.792;2023-07-31T06:43:52;0.37;;;0.33;;
80983;SDS011;70442;53.094;8.792;2023-07-31T06:46:17;0.47;;;0.30;;
80983;SDS011;70442;53.094;8.792;2023-07-31T06:48:42;0.50;;;0.30;;
80983;SDS011;70442;53.094;8.792;2023-07-31T06:51:08;0.10;;;0.03;;
80983;SDS011;70442;53.094;8.792;2023-07-31T06:53:33;0.60;;;0.30;;
80983;SDS011;70442;53.094;8.792;2023-07-31T06:55:58;0.53;;;0.30;;
80983;SDS011;70442;53.094;8.792;2023-07-31T06:58:24;0.40;;;0.23;;
80983;SDS011;70442;53.094;8.792;2023-07-31T07:00:49;0.30;;;0.20;;
80983;SDS011;70442;53.094;8.792;2023-07-31T07:03:17;0.38;;;0.25;;
80983;SDS011;70442;53.094;8.792;2023-07-31T07:05:43;0.35;;;0.20;;
80983;SDS011;70442;53.094;8.792;2023-07-31T07:08:08;0.10;;;0.10;;
80983;SDS011;70442;53.094;8.792;2023-07-31T07:10:33;0.10;;;0.10;;
80983;SDS011;70442;53.094;8.792;2023-07-31T07:12:59;0.20;;;0.13;;
80983;SDS011;70442;53.094;8.792;2023-07-31T07:15:24;0.20;;;0.13;;
80983;SDS011;70442;53.094;8.792;2023-07-31T07:17:49;0.20;;;0.20;;
80983;SDS011;70442;53.094;8.792;2023-07-31T07:20:15;0.10;;;0.10;;
80983;SDS011;70442;53.094;8.792;2023-07-31T07:22:40;0.40;;;0.30;;
80983;SDS011;70442;53.094;8.792;2023-07-31T07:25:08;0.88;;;0.20;;
80983;SDS011;70442;53.094;8.792;2023-07-31T07:27:33;0.30;;;0.20;;
80983;SDS011;70442;53.094;8.792;2023-07-31T07:30:00;0.32;;;0.25;;
80983;SDS011;70442;53.094;8.792;2023-07-31T07:32:26;0.82;;;0.32;;
80983;SDS011;70442;53.094;8.792;2023-07-31T07:34:51;0.30;;;0.30;;
80983;SDS011;70442;53.094;8.792;2023-07-31T07:37:16;0.63;;;0.20;;
80983;SDS011;70442;53.094;8.792;2023-07-31T07:39:42;0.77;;;0.28;;
80983;SDS011;70442;53.094;8.792;2023-07-31T07:42:07;0.82;;;0.35;;
80983;SDS011;70442;53.094;8.792;2023-07-31T07:44:32;1.03;;;0.40;;
80983;SDS011;70442;53.094;8.792;2023-07-31T07:46:58;0.70;;;0.40;;
80983;SDS011;70442;53.094;8.792;2023-07-31T07:49:23;1.07;;;0.60;;
80983;SDS011;70442;53.094;8.792;2023-07-31T07:51:48;1.83;;;0.75;;
80983;SDS011;70442;53.094;8.792;2023-07-31T07:54:14;1.50;;;0.63;;
80983;SDS011;70442;53.094;8.792;2023-07-31T07:56:39;1.35;;;0.60;;
80983;SDS011;70442;53.094;8.792;2023-07-31T07:59:05;1.42;;;0.88;;
80983;SDS011;70442;53.094;8.792;2023-07-31T08:01:30;2.23;;;0.80;;
80983;SDS011;70442;53.094;8.792;2023-07-31T08:03:55;2.03;;;0.90;;
80983;SDS011;70442;53.094;8.792;2023-07-31T08:06:21;1.83;;;0.97;;
80983;SDS011;70442;53.094;8.792;2023-07-31T08:08:47;2.45;;;1.00;;
80983;SDS011;70442;53.094;8.792;2023-07-31T08:11:13;3.93;;;1.20;;
80983;SDS011;70442;53.094;8.792;2023-07-31T08:13:38;3.17;;;1.55;;
80983;SDS011;70442;53.094;8.792;2023-07-31T08:16:04;2.20;;;1.48;;
80983;SDS011;70442;53.094;8.792;2023-07-31T08:18:30;3.83;;;1.42;;
80983;SDS011;70442;53.094;8.792;2023-07-31T08:20:56;3.25;;;1.73;;
80983;SDS011;70442;53.094;8.792;2023-07-31T08:23:21;3.07;;;1.37;;
80983;SDS011;70442;53.094;8.792;2023-07-31T08:25:46;1.80;;;1.07;;
80983;SDS011;70442;53.094;8.792;2023-07-31T08:28:11;2.03;;;1.47;;
80983;SDS011;70442;53.094;8.792;2023-07-31T08:30:37;3.88;;;1.80;;
80983;SDS011;70442;53.094;8.792;2023-07-31T08:33:02;2.20;;;1.40;;
80983;SDS011;70442;53.094;8.792;2023-07-31T08:35:28;2.87;;;1.57;;
80983;SDS011;70442;53.094;8.792;2023-07-31T08:37:53;4.03;;;2.13;;
80983;SDS011;70442;53.094;8.792;2023-07-31T08:40:18;4.70;;;1.90;;
80983;SDS011;70442;53.094;8.792;2023-07-31T08:42:44;2.20;;;1.60;;
80983;SDS011;70442;53.094;8.792;2023-07-31T08:45:14;2.90;;;1.67;;
80983;SDS011;70442;53.094;8.792;2023-07-31T08:47:44;4.35;;;1.98;;
80983;SDS011;70442;53.094;8.792;2023-07-31T08:50:15;3.97;;;1.80;;
80983;SDS011;70442;53.094;8.792;2023-07-31T08:52:41;2.83;;;1.70;;
80983;SDS011;70442;53.094;8.792;2023-07-31T08:55:07;3.88;;;1.80;;
80983;SDS011;70442;53.094;8.792;2023-07-31T08:57:34;4.25;;;1.77;;
80983;SDS011;70442;53.094;8.792;2023-07-31T09:00:01;3.45;;;1.98;;
80983;SDS011;70442;53.094;8.792;2023-07-31T09:02:37;3.00;;;1.90;;
80983;SDS011;70442;53.094;8.792;2023-07-31T09:05:06;3.42;;;1.73;;
80983;SDS011;70442;53.094;8.792;2023-07-31T09:07:33;3.03;;;1.98;;
80983;SDS011;70442;53.094;8.792;2023-07-31T09:09:59;4.97;;;2.08;;
80983;SDS011;70442;53.094;8.792;2023-07-31T09:12:25;2.83;;;1.80;;
80983;SDS011;70442;53.094;8.792;2023-07-31T09:14:50;2.22;;;1.40;;
80983;SDS011;70442;53.094;8.792;2023-07-31T09:17:16;2.92;;;1.38;;
80983;SDS011;70442;53.094;8.792;2023-07-31T09:19:53;3.53;;;1.50;;
80983;SDS011;70442;53.094;8.792;2023-07-31T09:22:22;3.27;;;1.50;;
80983;SDS011;70442;53.094;8.792;2023-07-31T09:24:57;2.65;;;1.42;;
80983;SDS011;70442;53.094;8.792;2023-07-31T09:27:45;2.40;;;1.63;;
80983;SDS011;70442;53.094;8.792;2023-07-31T09:30:11;1.80;;;1.20;;
80983;SDS011;70442;53.094;8.792;2023-07-31T09:32:36;2.47;;;1.43;;
80983;SDS011;70442;53.094;8.792;2023-07-31T09:35:12;3.05;;;1.30;;
80983;SDS011;70442;53.094;8.792;2023-07-31T09:37:48;3.00;;;1.10;;
80983;SDS011;70442;53.094;8.792;2023-07-31T09:40:24;2.05;;;1.23;;
80983;SDS011;70442;53.094;8.792;2023-07-31T09:43:00;2.08;;;1.30;;
80983;SDS011;70442;53.094;8.792;2023-07-31T09:45:30;2.78;;;1.13;;
80983;SDS011;70442;53.094;8.792;2023-07-31T09:47:58;2.28;;;1.27;;
80983;SDS011;70442;53.094;8.792;2023-07-31T09:50:24;2.80;;;1.43;;
80983;SDS011;70442;53.094;8.792;2023-07-31T09:52:50;2.88;;;1.10;;
80983;SDS011;70442;53.094;8.792;2023-07-31T09:55:16;2.38;;;1.33;;
80983;SDS011;70442;53.094;8.792;2023-07-31T09:57:44;2.10;;;1.17;;
80983;SDS011;70442;53.094;8.792;2023-07-31T10:00:12;1.85;;;1.02;;
80983;SDS011;70442;53.094;8.792;2023-07-31T10:02:38;2.00;;;1.17;;
80983;SDS011;70442;53.094;8.792;2023-07-31T10:05:04;1.42;;;0.70;;
80983;SDS011;70442;53.094;8.792;2023-07-31T10:07:31;1.33;;;0.70;;
80983;SDS011;70442;53.094;8.792;2023-07-31T10:10:00;2.20;;;0.75;;
80983;SDS011;70442;53.094;8.792;2023-07-31T10:12:26;1.52;;;1.08;;
80983;SDS011;70442;53.094;8.792;2023-07-31T10:14:55;2.03;;;0.73;;
80983;SDS011;70442;53.094;8.792;2023-07-31T10:17:21;1.60;;;0.90;;
80983;SDS011;70442;53.094;8.792;2023-07-31T10:19:48;2.25;;;0.70;;
80983;SDS011;70442;53.094;8.792;2023-07-31T10:22:14;1.40;;;0.88;;
80983;SDS011;70442;53.094;8.792;2023-07-31T10:24:40;1.65;;;0.90;;
80983;SDS011;70442;53.094;8.792;2023-07-31T10:27:07;1.10;;;0.70;;
80983;SDS011;70442;53.094;8.792;2023-07-31T10:29:33;1.30;;;0.70;;
80983;SDS011;70442;53.094;8.792;2023-07-31T10:31:59;0.93;;;0.60;;
80983;SDS011;70442;53.094;8.792;2023-07-31T10:34:25;1.58;;;0.60;;
80983;SDS011;70442;53.094;8.792;2023-07-31T10:36:50;2.20;;;0.75;;
80983;SDS011;70442;53.094;8.792;2023-07-31T10:39:58;1.05;;;0.52;;
80983;SDS011;70442;53.094;8.792;2023-07-31T10:42:32;1.27;;;0.68;;
80983;SDS011;70442;53.094;8.792;2023-07-31T10:45:00;0.60;;;0.57;;
80983;SDS011;70442;53.094;8.792;2023-07-31T10:48:02;1.17;;;0.63;;
80983;SDS011;70442;53.094;8.792;2023-07-31T10:50:32;1.48;;;0.50;;
80983;SDS011;70442;53.094;8.792;2023-07-31T10:52:58;0.55;;;0.50;;
80983;SDS011;70442;53.094;8.792;2023-07-31T10:57:54;1.02;;;0.65;;
80983;SDS011;70442;53.094;8.792;2023-07-31T11:03:08;0.75;;;0.40;;
80983;SDS011;70442;53.094;8.792;2023-07-31T11:10:42;0.47;;;0.32;;
80983;SDS011;70442;53.094;8.792;2023-07-31T11:13:08;0.47;;;0.30;;
80983;SDS011;70442;53.094;8.792;2023-07-31T11:15:33;0.33;;;0.17;;
80983;SDS011;70442;53.094;8.792;2023-07-31T11:18:00;0.80;;;0.30;;
80983;SDS011;70442;53.094;8.792;2023-07-31T11:20:31;0.22;;;0.22;;
80983;SDS011;70442;53.094;8.792;2023-07-31T11:23:01;0.20;;;0.10;;
80983;SDS011;70442;53.094;8.792;2023-07-31T11:25:28;0.20;;;0.20;;
80983;SDS011;70442;53.094;8.792;2023-07-31T11:27:54;0.10;;;0.10;;
80983;SDS011;70442;53.094;8.792;2023-07-31T11:30:21;1.00;;;0.82;;
80983;SDS011;70442;53.094;8.792;2023-07-31T11:32:46;0.60;;;0.40;;
80983;SDS011;70442;53.094;8.792;2023-07-31T11:35:12;0.57;;;0.27;;
80983;SDS011;70442;53.094;8.792;2023-07-31T11:37:41;0.32;;;0.13;;
80983;SDS011;70442;53.094;8.792;2023-07-31T11:40:07;0.50;;;0.40;;
80983;SDS011;70442;53.094;8.792;2023-07-31T11:42:34;0.30;;;0.22;;
80983;SDS011;70442;53.094;8.792;2023-07-31T11:45:01;0.10;;;0.10;;
80983;SDS011;70442;53.094;8.792;2023-07-31T11:47:27;0.00;;;0.00;;
80983;SDS011;70442;53.094;8.792;2023-07-31T11:49:53;0.10;;;0.10;;
80983;SDS011;70442;53.094;8.792;2023-07-31T11:52:18;0.13;;;0.10;;
80983;SDS011;70442;53.094;8.792;2023-07-31T11:54:45;0.00;;;0.00;;
80983;SDS011;70442;53.094;8.792;2023-07-31T11:57:11;0.13;;;0.13;;
80983;SDS011;70442;53.094;8.792;2023-07-31T11:59:37;0.13;;;0.13;;
80983;SDS011;70442;53.094;8.792;2023-07-31T12:02:03;0.20;;;0.15;;
80983;SDS011;70442;53.094;8.792;2023-07-31T12:04:28;0.10;;;0.10;;
80983;SDS011;70442;53.094;8.792;2023-07-31T12:06:54;0.10;;;0.10;;
80983;SDS011;70442;53.094;8.792;2023-07-31T12:09:19;0.10;;;0.10;;
80983;SDS011;70442;53.094;8.792;2023-07-31T12:11:45;0.10;;;0.10;;
80983;SDS011;70442;53.094;8.792;2023-07-31T12:14:24;0.00;;;0.00;;
80983;SDS011;70442;53.094;8.792;2023-07-31T12:16:54;0.00;;;0.00;;
80983;SDS011;70442;53.094;8.792;2023-07-31T12:19:21;0.20;;;0.00;;
80983;SDS011;70442;53.094;8.792;2023-07-31T12:21:46;0.20;;;0.10;;
80983;SDS011;70442;53.094;8.792;2023-07-31T12:24:12;0.10;;;0.10;;
80983;SDS011;70442;53.094;8.792;2023-07-31T12:26:37;0.17;;;0.10;;
80983;SDS011;70442;53.094;8.792;2023-07-31T12:29:05;0.10;;;0.10;;
80983;SDS011;70442;53.094;8.792;2023-07-31T12:31:33;0.20;;;0.20;;
80983;SDS011;70442;53.094;8.792;2023-07-31T12:33:58;0.22;;;0.20;;
80983;SDS011;70442;53.094;8.792;2023-07-31T12:36:24;0.10;;;0.10;;
80983;SDS011;70442;53.094;8.792;2023-07-31T12:38:50;0.20;;;0.20;;
80983;SDS011;70442;53.094;8.792;2023-07-31T12:41:16;0.10;;;0.10;;
80983;SDS011;70442;53.094;8.792;2023-07-31T12:43:42;0.85;;;0.20;;
80983;SDS011;70442;53.094;8.792;2023-07-31T12:46:09;0.25;;;0.20;;
80983;SDS011;70442;53.094;8.792;2023-07-31T12:48:35;0.70;;;0.30;;
80983;SDS011;70442;53.094;8.792;2023-07-31T12:51:01;0.30;;;0.15;;
80983;SDS011;70442;53.094;8.792;2023-07-31T12:53:27;0.30;;;0.10;;
80983;SDS011;70442;53.094;8.792;2023-07-31T12:55:53;0.52;;;0.40;;
80983;SDS011;70442;53.094;8.792;2023-07-31T12:58:18;0.20;;;0.20;;
80983;SDS011;70442;53.094;8.792;2023-07-31T13:00:43;0.23;;;0.10;;
80983;SDS011;70442;53.094;8.792;2023-07-31T13:03:09;0.20;;;0.20;;
80983;SDS011;70442;53.094;8.792;2023-07-31T13:05:34;0.33;;;0.20;;
80983;SDS011;70442;53.094;8.792;2023-07-31T13:08:00;0.50;;;0.22;;
80983;SDS011;70442;53.094;8.792;2023-07-31T13:10:25;0.60;;;0.50;;
80983;SDS011;70442;53.094;8.792;2023-07-31T13:12:53;0.20;;;0.20;;
80983;SDS011;70442;53.094;8.792;2023-07-31T13:15:18;0.22;;;0.15;;
80983;SDS011;70442;53.094;8.792;2023-07-31T13:17:44;0.60;;;0.30;;
80983;SDS011;70442;53.094;8.792;2023-07-31T13:20:10;0.73;;;0.43;;
80983;SDS011;70442;53.094;8.792;2023-07-31T13:22:36;0.68;;;0.50;;
80983;SDS011;70442;53.094;8.792;2023-07-31T13:25:01;0.20;;;0.20;;
80983;SDS011;70442;53.094;8.792;2023-07-31T13:27:26;0.97;;;0.60;;
80983;SDS011;70442;53.094;8.792;2023-07-31T13:29:52;0.53;;;0.50;;
80983;SDS011;70442;53.094;8.792;2023-07-31T13:32:17;0.60;;;0.40;;
80983;SDS011;70442;53.094;8.792;2023-07-31T13:34:43;0.43;;;0.40;;
80983;SDS011;70442;53.094;8.792;2023-07-31T13:37:09;0.73;;;0.50;;
80983;SDS011;70442;53.094;8.792;2023-07-31T13:39:37;0.90;;;0.60;;
80983;SDS011;70442;53.094;8.792;2023-07-31T13:42:03;1.15;;;0.60;;
80983;SDS011;70442;53.094;8.792;2023-07-31T13:44:28;1.08;;;0.70;;
80983;SDS011;70442;53.094;8.792;2023-07-31T13:46:53;1.03;;;0.80;;
80983;SDS011;70442;53.094;8.792;2023-07-31T13:49:19;0.98;;;0.60;;
80983;SDS011;70442;53.094;8.792;2023-07-31T13:51:44;0.73;;;0.53;;
80983;SDS011;70442;53.094;8.792;2023-07-31T13:54:09;0.93;;;0.63;;
80983;SDS011;70442;53.094;8.792;2023-07-31T13:56:36;1.20;;;0.65;;
80983;SDS011;70442;53.094;8.792;2023-07-31T13:59:02;1.02;;;0.65;;
80983;SDS011;70442;53.094;8.792;2023-07-31T14:01:27;1.25;;;0.90;;
80983;SDS011;70442;53.094;8.792;2023-07-31T14:03:52;1.52;;;0.82;;
80983;SDS011;70442;53.094;8.792;2023-07-31T14:06:18;0.73;;;0.63;;
80983;SDS011;70442;53.094;8.792;2023-07-31T14:08:43;1.42;;;0.77;;
80983;SDS011;70442;53.094;8.792;2023-07-31T14:11:09;1.33;;;0.90;;
80983;SDS011;70442;53.094;8.792;2023-07-31T14:13:34;1.50;;;0.87;;
80983;SDS011;70442;53.094;8.792;2023-07-31T14:15:59;1.63;;;0.93;;
80983;SDS011;70442;53.094;8.792;2023-07-31T14:18:25;1.45;;;0.80;;
80983;SDS011;70442;53.094;8.792;2023-07-31T14:20:50;1.00;;;0.67;;
80983;SDS011;70442;53.094;8.792;2023-07-31T14:23:16;1.48;;;0.93;;
80983;SDS011;70442;53.094;8.792;2023-07-31T14:25:41;1.45;;;0.90;;
80983;SDS011;70442;53.094;8.792;2023-07-31T14:28:07;1.50;;;1.20;;
80983;SDS011;70442;53.094;8.792;2023-07-31T14:30:32;1.25;;;0.90;;
80983;SDS011;70442;53.094;8.792;2023-07-31T14:32:57;1.67;;;1.10;;
80983;SDS011;70442;53.094;8.792;2023-07-31T14:35:23;2.10;;;1.43;;
80983;SDS011;70442;53.094;8.792;2023-07-31T14:37:48;1.90;;;1.10;;
80983;SDS011;70442;53.094;8.792;2023-07-31T14:40:14;1.60;;;1.10;;
80983;SDS011;70442;53.094;8.792;2023-07-31T14:42:39;1.60;;;0.90;;
80983;SDS011;70442;53.094;8.792;2023-07-31T14:45:06;1.90;;;1.33;;
80983;SDS011;70442;53.094;8.792;2023-07-31T14:47:32;3.05;;;1.30;;
80983;SDS011;70442;53.094;8.792;2023-07-31T14:49:58;1.70;;;1.00;;
80983;SDS011;70442;53.094;8.792;2023-07-31T14:52:24;2.17;;;1.42;;
80983;SDS011;70442;53.094;8.792;2023-07-31T14:54:49;2.10;;;1.35;;
80983;SDS011;70442;53.094;8.792;2023-07-31T14:57:15;2.28;;;1.05;;